Time;durP1;ratioP1;P1;durP2;ratioP2;P2;SDS_P1;SDS_P2;PMS_P1;PMS_P2;Temp;Humidity;BMP_temperature;BMP_pressure;BME280_temperature;BME280_humidity;BME280_pressure;Samples;Min_cycle;Max_cycle;Signal;HPM_P1;HPM_P2
2022/07/15 00:02:00;;;;;;;2.87;1.10;;;;;;;15.36;64.85;101242.03;5008785;28;20681;-80
2022/07/15 00:04:27;;;;;;;4.20;1.30;;;;;;;15.29;65.10;101237.09;5013812;28;20206;-80
2022/07/15 00:06:53;;;;;;;2.67;1.10;;;;;;;15.26;65.21;101237.31;5013844;28;20660;-80
2022/07/15 00:09:20;;;;;;;3.93;1.20;;;;;;;15.21;65.74;101239.50;5011919;28;20205;-79
2022/07/15 00:11:46;;;;;;;4.53;1.40;;;;;;;15.19;65.78;101243.25;5010562;28;20223;-81
2022/07/15 00:14:13;;;;;;;2.07;1.03;;;;;;;15.15;66.13;101239.94;5006168;28;20218;-80
2022/07/15 00:16:39;;;;;;;3.53;1.27;;;;;;;15.13;66.13;101243.69;5008317;28;20207;-80
2022/07/15 00:19:07;;;;;;;2.17;1.17;;;;;;;15.10;65.83;101236.72;5008775;28;20222;-80
2022/07/15 00:21:34;;;;;;;3.63;1.10;;;;;;;15.08;66.09;101237.78;5008875;28;20230;-81
2022/07/15 00:24:00;;;;;;;1.67;1.10;;;;;;;15.05;66.43;101236.19;5004329;28;20199;-80
2022/07/15 00:26:27;;;;;;;3.27;1.30;;;;;;;15.03;66.57;101235.47;5014038;28;20203;-80
2022/07/15 00:28:53;;;;;;;2.93;1.30;;;;;;;15.02;66.24;101236.44;5011140;28;20218;-80
2022/07/15 00:31:20;;;;;;;2.50;1.10;;;;;;;14.99;66.58;101233.97;5006320;28;20680;-81
2022/07/15 00:33:47;;;;;;;2.93;1.17;;;;;;;14.98;66.82;101234.94;5013411;28;20218;-81
2022/07/15 00:36:15;;;;;;;3.77;1.50;;;;;;;14.98;66.99;101237.63;5011800;28;20214;-81
2022/07/15 00:38:42;;;;;;;2.73;1.23;;;;;;;14.95;66.83;101229.78;5010109;28;20234;-80
2022/07/15 00:41:08;;;;;;;3.47;1.50;;;;;;;14.94;67.28;101231.63;5012159;28;20221;-82
2022/07/15 00:43:35;;;;;;;3.47;1.20;;;;;;;14.92;67.29;101228.19;5013184;28;20230;-80
2022/07/15 00:46:01;;;;;;;5.10;1.30;;;;;;;14.90;67.66;101229.25;5011106;28;20580;-81
2022/07/15 00:48:28;;;;;;;3.07;1.20;;;;;;;14.89;67.39;101227.53;5010740;28;20199;-81
2022/07/15 00:50:54;;;;;;;6.20;1.43;;;;;;;14.88;67.65;101231.19;5013346;28;20203;-80
2022/07/15 00:53:22;;;;;;;3.30;1.30;;;;;;;14.86;67.94;101235.84;5007621;28;20227;-80
2022/07/15 00:55:50;;;;;;;3.33;1.20;;;;;;;14.82;67.95;101235.19;5012764;28;20199;-80
2022/07/15 00:58:18;;;;;;;5.90;1.50;;;;;;;14.79;68.26;101229.19;5010006;28;20254;-80
2022/07/15 01:00:47;;;;;;;4.47;1.50;;;;;;;14.77;68.63;101233.81;5008695;28;20209;-81
2022/07/15 01:03:16;;;;;;;4.43;1.30;;;;;;;14.73;68.46;101226.94;5007046;28;20233;-80
2022/07/15 01:05:43;;;;;;;4.57;1.50;;;;;;;14.69;68.96;101228.97;5010952;28;20222;-81
2022/07/15 01:08:10;;;;;;;5.80;2.10;;;;;;;14.67;68.91;101236.28;5012528;28;20215;-79
2022/07/15 01:10:40;;;;;;;3.97;1.50;;;;;;;14.64;69.17;101223.09;5011701;28;20896;-80
2022/07/15 01:13:07;;;;;;;4.73;1.17;;;;;;;14.63;69.58;101225.88;5013084;28;20236;-80
2022/07/15 01:15:34;;;;;;;2.60;1.20;;;;;;;14.61;69.70;101225.13;5013064;28;20242;-81
2022/07/15 01:18:02;;;;;;;6.17;1.63;;;;;;;14.57;69.38;101228.03;5012143;28;20227;-80
2022/07/15 01:20:29;;;;;;;4.83;1.57;;;;;;;14.52;69.59;101218.59;5011075;28;20557;-79
2022/07/15 01:22:58;;;;;;;4.63;1.63;;;;;;;14.50;70.22;101218.72;5011608;28;20709;-81
2022/07/15 01:25:25;;;;;;;4.33;1.50;;;;;;;14.46;70.08;101219.91;5011524;28;20203;-80
2022/07/15 01:27:52;;;;;;;5.60;1.67;;;;;;;14.43;70.14;101222.78;5012467;28;20206;-80
2022/07/15 01:30:18;;;;;;;3.43;1.50;;;;;;;14.38;70.28;101222.22;5010910;28;20214;-80
2022/07/15 01:32:45;;;;;;;3.87;1.40;;;;;;;14.36;70.60;101223.28;5010773;28;20227;-80
2022/07/15 01:35:12;;;;;;;3.47;1.47;;;;;;;14.34;70.29;101220.72;5012231;28;20203;-82
2022/07/15 01:37:38;;;;;;;3.90;1.60;;;;;;;14.33;70.52;101223.53;5010549;28;20218;-82
2022/07/15 01:40:08;;;;;;;4.50;1.40;;;;;;;14.34;70.71;101230.56;5013179;28;20857;-82
2022/07/15 01:42:34;;;;;;;5.13;1.47;;;;;;;14.33;70.95;101239.59;5002775;28;20230;-80
2022/07/15 01:45:01;;;;;;;5.50;1.27;;;;;;;14.35;70.42;101237.66;5011282;28;20207;-81
2022/07/15 01:47:27;;;;;;;6.63;1.30;;;;;;;14.35;70.17;101243.00;5007345;28;20207;-81
2022/07/15 01:49:53;;;;;;;3.40;1.47;;;;;;;14.34;70.12;101247.50;5007848;28;20641;-80
2022/07/15 01:52:19;;;;;;;2.93;1.30;;;;;;;14.33;70.21;101253.81;5005373;28;20267;-82
2022/07/15 01:54:46;;;;;;;4.03;1.70;;;;;;;14.31;69.64;101246.88;5014012;28;20572;-81
2022/07/15 01:57:14;;;;;;;3.43;1.23;;;;;;;14.29;70.16;101248.81;5004054;28;20207;-81
2022/07/15 01:59:41;;;;;;;4.63;1.30;;;;;;;14.28;69.83;101253.31;5013654;28;20234;-80
2022/07/15 02:02:08;;;;;;;6.97;1.30;;;;;;;14.29;70.30;101252.34;5009270;28;20636;-80
2022/07/15 02:04:34;;;;;;;5.53;1.50;;;;;;;14.29;70.35;101260.38;5011987;28;20688;-80
2022/07/15 02:07:01;;;;;;;4.30;1.30;;;;;;;14.29;70.59;101259.53;5010746;28;20210;-80
2022/07/15 02:09:27;;;;;;;4.23;1.17;;;;;;;14.27;70.50;101258.78;5009200;28;20602;-82
2022/07/15 02:11:54;;;;;;;4.60;1.50;;;;;;;14.24;70.14;101260.69;5010425;28;20227;-82
2022/07/15 02:14:22;;;;;;;5.13;1.47;;;;;;;14.25;70.60;101258.88;5010315;28;20598;-81
2022/07/15 02:16:48;;;;;;;5.80;1.47;;;;;;;14.22;70.88;101257.25;5009413;28;20207;-80
2022/07/15 02:19:15;;;;;;;2.20;1.30;;;;;;;14.19;70.65;101259.28;5010608;28;20616;-81
2022/07/15 02:21:42;;;;;;;2.93;1.43;;;;;;;14.17;70.84;101256.72;5006180;28;20275;-81
2022/07/15 02:24:08;;;;;;;4.20;1.50;;;;;;;14.14;71.11;101261.44;5011773;28;20234;-81
2022/07/15 02:26:35;;;;;;;4.30;1.50;;;;;;;14.12;71.01;101263.38;5005579;28;20555;-82
2022/07/15 02:29:02;;;;;;;7.80;2.00;;;;;;;14.09;71.12;101261.75;5006368;28;20208;-81
2022/07/15 02:31:30;;;;;;;6.57;1.83;;;;;;;14.05;71.14;101268.28;5010158;28;20245;-80
2022/07/15 02:33:56;;;;;;;3.83;1.27;;;;;;;14.04;71.53;101271.91;5006203;28;20213;-81
2022/07/15 02:36:23;;;;;;;4.03;1.40;;;;;;;14.01;71.47;101260.53;5009085;28;20577;-81
2022/07/15 02:38:50;;;;;;;4.40;1.60;;;;;;;13.99;71.80;101267.81;5006319;28;20261;-80
2022/07/15 02:41:17;;;;;;;3.93;1.13;;;;;;;13.98;72.10;101271.47;5006534;28;20211;-81
2022/07/15 02:43:44;;;;;;;3.60;1.53;;;;;;;13.98;71.97;101272.31;5007600;28;20595;-81
2022/07/15 02:46:11;;;;;;;7.00;1.20;;;;;;;13.97;72.10;101277.81;5006089;28;20649;-80
2022/07/15 02:48:39;;;;;;;4.60;1.50;;;;;;;13.96;71.73;101273.41;5010175;28;20213;-81
2022/07/15 02:51:06;;;;;;;3.57;1.00;;;;;;;13.95;71.47;101279.72;5008941;28;20208;-80
2022/07/15 02:53:33;;;;;;;6.63;1.50;;;;;;;13.88;71.69;101271.22;5008440;28;20242;-80
2022/07/15 02:56:00;;;;;;;3.67;1.37;;;;;;;13.87;71.48;101285.59;5003819;28;20211;-80
2022/07/15 02:58:27;;;;;;;10.80;2.37;;;;;;;13.84;71.50;101275.94;5010240;28;20210;-80
2022/07/15 03:00:53;;;;;;;6.30;1.40;;;;;;;13.82;71.67;101279.66;5011036;28;20685;-80
2022/07/15 03:03:20;;;;;;;4.43;1.23;;;;;;;13.80;71.13;101284.25;5008163;28;20721;-82
2022/07/15 03:05:48;;;;;;;1.83;1.00;;;;;;;13.78;71.55;101283.53;5012739;28;20712;-80
2022/07/15 03:08:15;;;;;;;4.20;1.50;;;;;;;13.74;71.28;101285.56;5006811;28;20218;-80
2022/07/15 03:10:41;;;;;;;4.17;1.20;;;;;;;13.71;71.44;101285.75;5009787;28;20206;-81
2022/07/15 03:13:08;;;;;;;5.63;1.60;;;;;;;13.70;71.38;101291.19;5016279;28;20225;-81
2022/07/15 03:15:35;;;;;;;4.20;1.57;;;;;;;13.67;71.12;101288.72;5010469;28;20657;-82
2022/07/15 03:18:02;;;;;;;6.53;1.40;;;;;;;13.65;71.00;101287.97;5010427;28;20656;-81
2022/07/15 03:20:28;;;;;;;2.73;1.13;;;;;;;13.63;71.46;101293.41;5002571;28;20227;-81
2022/07/15 03:22:56;;;;;;;4.57;1.40;;;;;;;13.63;71.38;101288.06;5004054;28;20260;-81
2022/07/15 03:25:22;;;;;;;5.33;1.53;;;;;;;13.61;71.38;101295.34;5005239;28;20928;-80
2022/07/15 03:27:49;;;;;;;3.63;1.40;;;;;;;13.58;71.16;101295.56;5002373;28;20213;-81
2022/07/15 03:30:16;;;;;;;4.40;1.40;;;;;;;13.56;71.09;101302.81;5010329;28;20653;-80
2022/07/15 03:32:42;;;;;;;7.07;1.33;;;;;;;13.52;71.34;101291.44;5009858;28;20235;-80
2022/07/15 03:35:10;;;;;;;4.17;1.50;;;;;;;13.51;71.23;101297.75;5006355;28;20207;-80
2022/07/15 03:37:37;;;;;;;4.53;1.70;;;;;;;13.51;71.36;101296.91;5009278;28;20218;-81
2022/07/15 03:40:06;;;;;;;6.57;1.80;;;;;;;13.48;71.27;101299.78;5007193;28;20229;-81
2022/07/15 03:42:33;;;;;;;5.80;1.47;;;;;;;13.45;71.44;101303.50;5010038;28;20225;-80
2022/07/15 03:44:59;;;;;;;4.80;1.53;;;;;;;13.45;71.83;101310.66;5009004;28;20203;-83
2022/07/15 03:47:26;;;;;;;3.80;1.27;;;;;;;13.43;71.87;101308.13;5009430;28;20215;-82
2022/07/15 03:49:54;;;;;;;4.07;1.67;;;;;;;13.43;71.65;101309.94;5010333;28;20203;-82
2022/07/15 03:52:20;;;;;;;3.77;1.20;;;;;;;13.41;71.55;101306.50;5009771;28;20227;-81
2022/07/15 03:54:47;;;;;;;4.30;1.20;;;;;;;13.40;72.13;101297.63;5011441;28;20739;-81
2022/07/15 03:57:14;;;;;;;5.73;1.60;;;;;;;13.39;72.02;101300.38;5014015;28;20567;-81
2022/07/15 03:59:41;;;;;;;5.33;1.53;;;;;;;13.35;71.89;101294.38;5008928;28;20681;-82
2022/07/15 04:02:08;;;;;;;4.17;1.30;;;;;;;13.34;71.79;101307.84;5014221;28;20229;-81
2022/07/15 04:04:34;;;;;;;3.63;1.50;;;;;;;13.33;72.12;101300.78;5011779;28;20297;-81
2022/07/15 04:07:00;;;;;;;5.23;1.13;;;;;;;13.32;72.39;101299.91;5013927;28;20672;-80
2022/07/15 04:09:27;;;;;;;5.60;1.63;;;;;;;13.31;72.08;101308.91;5015512;28;20206;-81
2022/07/15 04:11:53;;;;;;;5.33;1.47;;;;;;;13.30;72.14;101306.31;5014412;28;20722;-80
2022/07/15 04:14:22;;;;;;;5.90;1.40;;;;;;;13.29;72.19;101304.59;5011201;28;20207;-80
2022/07/15 04:16:49;;;;;;;3.33;1.13;;;;;;;13.29;72.27;101308.13;5012107;28;20222;-80
2022/07/15 04:19:15;;;;;;;5.63;1.30;;;;;;;13.28;72.46;101313.56;5009156;28;20690;-80
2022/07/15 04:21:42;;;;;;;4.93;1.90;;;;;;;13.28;72.54;101318.91;5012132;28;20872;-80
2022/07/15 04:24:08;;;;;;;4.77;1.57;;;;;;;13.28;72.54;101311.75;5018388;28;20303;-80
2022/07/15 04:26:35;;;;;;;6.60;1.80;;;;;;;13.29;72.69;101309.94;5009604;28;20210;-80
2022/07/15 04:29:01;;;;;;;6.20;1.67;;;;;;;13.30;72.63;101315.19;5013297;28;20199;-80
2022/07/15 04:31:29;;;;;;;6.47;1.43;;;;;;;13.32;72.99;101317.78;5012873;28;20206;-80
2022/07/15 04:33:56;;;;;;;5.57;1.90;;;;;;;13.34;73.32;101324.75;5005649;28;20203;-80
2022/07/15 04:36:22;;;;;;;7.10;1.57;;;;;;;13.36;73.30;101322.84;5012915;28;20223;-81
2022/07/15 04:38:49;;;;;;;4.30;1.30;;;;;;;13.40;73.39;101320.84;5012387;28;20214;-80
2022/07/15 04:41:16;;;;;;;4.90;1.67;;;;;;;13.42;73.03;101321.59;5000018;28;20218;-81
2022/07/15 04:43:42;;;;;;;5.47;2.13;;;;;;;13.44;72.99;101322.31;5001505;28;20703;-81
2022/07/15 04:46:09;;;;;;;7.47;1.50;;;;;;;13.45;72.89;101321.38;5008025;28;20747;-80
2022/07/15 04:51:21;;;;;;;3.47;1.40;;;;;;;13.50;72.91;101332.66;5011241;28;20292;-82
2022/07/15 04:53:47;;;;;;;4.20;1.27;;;;;;;13.51;73.29;101332.56;5012077;28;20207;-80
2022/07/15 04:56:15;;;;;;;9.00;2.00;;;;;;;13.53;73.00;101327.09;5010261;28;20203;-80
2022/07/15 04:58:42;;;;;;;4.60;1.50;;;;;;;13.55;72.99;101333.22;5009981;28;20242;-81
2022/07/15 05:01:09;;;;;;;11.73;2.43;;;;;;;13.56;73.22;101324.22;5009788;28;20219;-80
2022/07/15 05:03:36;;;;;;;6.57;1.50;;;;;;;13.61;73.26;101330.16;5015970;28;20314;-81
2022/07/15 05:06:03;;;;;;;5.57;1.50;;;;;;;13.65;73.31;101333.47;5013102;28;20207;-81
2022/07/15 05:08:30;;;;;;;5.87;1.43;;;;;;;13.67;72.84;101326.19;5003456;28;20214;-81
2022/07/15 05:10:56;;;;;;;5.10;1.30;;;;;;;13.72;72.98;101329.44;5013323;28;20207;-80
2022/07/15 05:13:23;;;;;;;5.10;1.27;;;;;;;13.76;72.82;101341.66;5010967;28;20689;-83
2022/07/15 05:15:49;;;;;;;5.97;1.20;;;;;;;13.79;72.83;101334.28;5003615;28;20217;-81
2022/07/15 05:18:16;;;;;;;5.20;1.73;;;;;;;13.82;72.81;101336.75;5003134;28;20207;-82
2022/07/15 05:20:44;;;;;;;5.10;1.50;;;;;;;13.88;72.76;101341.72;5010216;28;20230;-80
2022/07/15 05:23:10;;;;;;;5.73;1.40;;;;;;;13.90;73.01;101342.47;5013788;28;20227;-82
2022/07/15 05:25:37;;;;;;;4.70;1.37;;;;;;;13.92;72.83;101349.53;5007052;28;20211;-83
2022/07/15 05:28:03;;;;;;;7.00;1.60;;;;;;;13.96;72.84;101349.25;5005684;28;20568;-82
2022/07/15 05:30:30;;;;;;;3.97;1.20;;;;;;;14.00;72.53;101347.19;5005315;28;20207;-81
2022/07/15 05:32:57;;;;;;;7.23;1.97;;;;;;;14.03;72.79;101350.53;5013592;28;20222;-82
2022/07/15 05:35:23;;;;;;;8.27;1.33;;;;;;;14.08;72.95;101356.47;5006363;28;20227;-82
2022/07/15 05:37:51;;;;;;;5.33;1.30;;;;;;;14.14;72.52;101366.78;5010396;28;20199;-81
2022/07/15 05:40:18;;;;;;;7.53;1.77;;;;;;;14.18;72.69;101362.03;5008091;28;20228;-80
2022/07/15 05:42:44;;;;;;;6.27;1.37;;;;;;;14.23;72.81;101360.78;5014990;28;20228;-80
2022/07/15 05:45:11;;;;;;;4.93;1.60;;;;;;;14.29;72.60;101359.53;5010546;28;20214;-83
2022/07/15 05:47:38;;;;;;;3.70;1.50;;;;;;;14.35;72.20;101361.75;5010536;28;20214;-80
2022/07/15 05:50:05;;;;;;;4.73;1.40;;;;;;;14.40;72.08;101354.31;5000240;28;20203;-81
2022/07/15 05:52:32;;;;;;;3.20;1.23;;;;;;;14.46;71.77;101359.28;5004365;28;20258;-82
2022/07/15 05:55:00;;;;;;;10.53;2.10;;;;;;;14.53;71.62;101360.53;5011598;28;20203;-81
2022/07/15 05:57:27;;;;;;;4.20;1.83;;;;;;;14.58;71.57;101357.56;5004428;28;20670;-80
2022/07/15 05:59:53;;;;;;;5.93;1.90;;;;;;;14.64;71.60;101354.47;5010984;28;20219;-80
2022/07/15 06:02:20;;;;;;;3.97;1.40;;;;;;;14.70;71.00;101361.19;5009434;28;20226;-80
2022/07/15 06:04:46;;;;;;;7.80;1.53;;;;;;;14.74;70.99;101363.56;5009433;28;20211;-80
2022/07/15 06:07:13;;;;;;;7.87;1.33;;;;;;;14.79;70.34;101368.63;5016658;28;20598;-80
2022/07/15 06:09:39;;;;;;;5.90;1.30;;;;;;;14.83;70.34;101372.81;5010953;28;20209;-82
2022/07/15 06:12:09;;;;;;;5.57;1.17;;;;;;;14.89;70.16;101370.53;5011356;28;20230;-81
2022/07/15 06:14:35;;;;;;;9.17;2.03;;;;;;;14.95;70.02;101377.31;5010139;28;20207;-82
2022/07/15 06:17:02;;;;;;;7.17;1.57;;;;;;;15.00;69.84;101377.84;5010291;28;20210;-81
2022/07/15 06:19:28;;;;;;;3.97;1.30;;;;;;;15.07;69.51;101387.16;5010746;28;20214;-83
2022/07/15 06:21:55;;;;;;;7.63;1.47;;;;;;;15.13;69.62;101378.69;5004644;28;20223;-82
2022/07/15 06:24:21;;;;;;;5.97;1.30;;;;;;;15.20;69.03;101380.00;5010365;28;20207;-82
2022/07/15 06:26:48;;;;;;;7.97;1.40;;;;;;;15.27;69.25;101391.13;5017918;28;20211;-80
2022/07/15 06:29:16;;;;;;;5.63;1.17;;;;;;;15.36;68.91;101381.59;5011168;28;20213;-83
2022/07/15 06:31:42;;;;;;;5.43;1.93;;;;;;;15.43;68.80;101389.06;5005930;28;20234;-83
2022/07/15 06:34:09;;;;;;;4.77;1.40;;;;;;;15.51;68.37;101388.53;5009458;28;21053;-82
2022/07/15 06:36:36;;;;;;;5.63;1.10;;;;;;;15.56;67.25;101389.09;5013625;28;20214;-80
2022/07/15 06:39:03;;;;;;;4.57;0.83;;;;;;;15.61;66.43;101389.59;5006485;28;20214;-80
2022/07/15 06:41:31;;;;;;;4.97;0.93;;;;;;;15.68;66.21;101387.34;5016803;28;20592;-82
2022/07/15 06:43:57;;;;;;;5.20;0.90;;;;;;;15.75;65.88;101391.31;5013920;28;20898;-83
2022/07/15 06:46:25;;;;;;;6.90;1.20;;;;;;;15.81;65.14;101380.94;5005630;28;20203;-84
2022/07/15 06:48:52;;;;;;;4.50;1.00;;;;;;;15.88;64.54;101387.59;5009956;28;20217;-82
2022/07/15 06:51:18;;;;;;;5.90;1.20;;;;;;;15.93;63.87;101390.81;5010604;28;20210;-81
2022/07/15 06:53:45;;;;;;;6.60;1.07;;;;;;;16.02;63.64;101396.44;5014061;28;20210;-81
2022/07/15 06:56:12;;;;;;;6.43;1.27;;;;;;;16.10;63.36;101386.00;5016489;28;20205;-81
2022/07/15 06:58:39;;;;;;;6.30;1.17;;;;;;;16.17;63.26;101389.94;5012255;28;20240;-83
2022/07/15 07:01:06;;;;;;;5.03;1.13;;;;;;;16.24;62.68;101392.06;5005145;28;20253;-83
2022/07/15 07:03:34;;;;;;;1.97;0.83;;;;;;;16.29;61.63;101394.41;5012881;28;20228;-83
2022/07/15 07:06:01;;;;;;;6.87;1.03;;;;;;;16.33;61.56;101388.66;5004232;28;20204;-83
2022/07/15 07:08:28;;;;;;;9.20;1.10;;;;;;;16.43;61.28;101391.53;5002484;28;20220;-81
2022/07/15 07:10:54;;;;;;;4.67;0.93;;;;;;;16.53;61.12;101392.53;5009733;28;20649;-83
2022/07/15 07:13:21;;;;;;;3.67;1.00;;;;;;;16.61;60.20;101394.63;5010114;28;20223;-82
2022/07/15 07:15:47;;;;;;;4.67;1.20;;;;;;;16.70;60.14;101398.47;5010211;28;20207;-81
2022/07/15 07:18:14;;;;;;;6.13;1.00;;;;;;;16.79;59.69;101389.69;5001500;28;20732;-81
2022/07/15 07:20:43;;;;;;;3.30;0.60;;;;;;;16.85;58.54;101392.75;5008406;28;20229;-81
2022/07/15 07:23:10;;;;;;;5.23;0.97;;;;;;;16.88;57.69;101387.13;5002772;28;20233;-82
2022/07/15 07:25:37;;;;;;;3.43;0.80;;;;;;;16.91;57.28;101389.59;5005014;28;20656;-81
2022/07/15 07:28:04;;;;;;;4.20;1.00;;;;;;;16.98;57.38;101392.66;5011015;28;20692;-81
2022/07/15 07:30:30;;;;;;;4.40;0.93;;;;;;;17.07;57.60;101391.06;5005071;28;20205;-82
2022/07/15 07:32:57;;;;;;;6.40;0.90;;;;;;;17.17;57.18;101387.56;5010783;28;20235;-82
2022/07/15 07:35:24;;;;;;;4.20;0.60;;;;;;;17.22;56.29;101382.63;5003428;28;20214;-80
2022/07/15 07:37:52;;;;;;;4.33;0.90;;;;;;;17.30;55.92;101377.50;5000443;28;20230;-80
2022/07/15 07:40:19;;;;;;;3.30;0.93;;;;;;;17.39;56.20;101378.59;5004981;28;20239;-83
2022/07/15 07:42:45;;;;;;;2.50;0.70;;;;;;;17.47;55.70;101380.69;5003225;28;20234;-82
2022/07/15 07:45:12;;;;;;;2.70;0.80;;;;;;;17.55;54.85;101371.03;4998840;28;20211;-82
2022/07/15 07:47:40;;;;;;;2.83;0.70;;;;;;;17.69;54.62;101367.22;5007401;28;20222;-82
2022/07/15 07:50:09;;;;;;;5.93;0.80;;;;;;;17.84;53.91;101376.75;5005327;28;20218;-81
2022/07/15 07:52:35;;;;;;;4.13;0.80;;;;;;;18.05;53.47;101360.63;5002668;28;20224;-82
2022/07/15 07:55:03;;;;;;;2.83;0.60;;;;;;;18.22;52.39;101373.56;5003013;28;20228;-82
2022/07/15 07:57:30;;;;;;;2.83;0.83;;;;;;;18.34;51.50;101361.72;5007966;28;20212;-81
2022/07/15 07:59:56;;;;;;;3.33;1.13;;;;;;;18.40;50.61;101360.38;5010843;28;20215;-81
2022/07/15 08:02:23;;;;;;;5.20;0.60;;;;;;;18.46;50.33;101362.50;5009946;28;20247;-81
2022/07/15 08:04:51;;;;;;;2.47;0.70;;;;;;;18.46;49.91;101367.06;5009528;28;20857;-81
2022/07/15 08:07:18;;;;;;;2.53;0.67;;;;;;;18.46;49.99;101364.34;5004125;28;20225;-82
2022/07/15 08:09:45;;;;;;;3.33;0.77;;;;;;;18.45;49.63;101368.06;5001729;28;20556;-82
2022/07/15 08:12:12;;;;;;;2.53;0.60;;;;;;;18.41;49.51;101369.31;4999473;28;20236;-83
2022/07/15 08:14:39;;;;;;;2.70;0.70;;;;;;;18.39;49.48;101369.44;5000554;28;20689;-81
2022/07/15 08:17:05;;;;;;;2.70;0.80;;;;;;;18.37;49.38;101372.25;5004546;28;20204;-81
2022/07/15 08:19:32;;;;;;;3.47;0.97;;;;;;;18.38;49.64;101367.72;5004429;28;20300;-83
2022/07/15 08:21:59;;;;;;;3.53;0.70;;;;;;;18.41;49.67;101369.31;4999770;28;20637;-83
2022/07/15 08:24:25;;;;;;;3.50;0.90;;;;;;;18.43;49.62;101368.19;5004852;28;20295;-81
2022/07/15 08:26:52;;;;;;;3.87;0.60;;;;;;;18.46;49.61;101378.69;5003015;28;20313;-80
2022/07/15 08:29:20;;;;;;;2.23;0.70;;;;;;;18.48;49.09;101382.13;5010827;28;20276;-81
2022/07/15 08:31:47;;;;;;;1.77;0.40;;;;;;;18.47;48.25;101379.56;5008124;28;20222;-83
2022/07/15 08:34:13;;;;;;;2.37;0.60;;;;;;;18.48;48.07;101370.47;5007032;28;20625;-83
2022/07/15 08:36:40;;;;;;;3.10;0.50;;;;;;;18.56;48.23;101362.59;5004397;28;20209;-83
2022/07/15 08:39:07;;;;;;;2.23;0.63;;;;;;;18.67;48.09;101358.03;5010231;28;20737;-81
2022/07/15 08:41:36;;;;;;;2.43;0.50;;;;;;;18.82;47.37;101360.38;5002198;28;20238;-83
2022/07/15 08:44:03;;;;;;;1.37;0.37;;;;;;;18.98;47.17;101358.94;5003104;28;20208;-80
2022/07/15 08:46:34;;;;;;;0.97;0.40;;;;;;;19.18;46.72;101356.31;4999744;28;20211;-82
2022/07/15 08:49:07;;;;;;;3.70;0.60;;;;;;;19.38;46.42;101355.38;5010791;28;20203;-81
2022/07/15 08:51:38;;;;;;;1.37;0.70;;;;;;;19.57;45.34;101357.34;5008023;28;20233;-83
2022/07/15 08:54:05;;;;;;;1.57;0.50;;;;;;;19.60;44.66;101359.75;5012454;28;20214;-82
2022/07/15 08:56:33;;;;;;;1.40;0.70;;;;;;;19.60;44.42;101376.84;5013450;28;20770;-83
2022/07/15 08:59:01;;;;;;;2.13;0.60;;;;;;;19.52;44.13;101367.72;5015615;28;20221;-83
2022/07/15 09:01:27;;;;;;;3.00;0.60;;;;;;;19.45;44.22;101372.78;5009781;28;20234;-83
2022/07/15 09:03:55;;;;;;;2.30;0.50;;;;;;;19.42;44.29;101373.03;5017711;28;20216;-83
2022/07/15 09:06:36;;;;;;;1.60;0.40;;;;;;;19.37;44.50;101386.94;5004737;28;20211;-84
2022/07/15 09:09:24;;;;;;;1.10;0.50;;;;;;;19.33;44.54;101385.53;5015379;28;20287;-83
2022/07/15 09:11:57;;;;;;;1.97;0.50;;;;;;;19.30;44.66;101380.41;5012209;28;20577;-82
2022/07/15 09:14:26;;;;;;;3.70;0.60;;;;;;;19.29;44.36;101381.38;5011040;28;20213;-83
2022/07/15 09:17:06;;;;;;;3.73;0.60;;;;;;;19.27;44.12;101388.78;5012713;28;20213;-82
2022/07/15 09:19:59;;;;;;;2.00;0.37;;;;;;;19.28;44.44;101376.97;5009633;28;20207;-82
2022/07/15 09:22:26;;;;;;;2.47;0.60;;;;;;;19.32;43.88;101369.47;5006495;28;20234;-82
2022/07/15 09:25:04;;;;;;;2.00;0.40;;;;;;;19.34;43.42;101375.59;5010017;28;20225;-82
2022/07/15 09:27:35;;;;;;;2.83;0.57;;;;;;;19.34;42.81;101381.84;5010259;28;20222;-83
2022/07/15 09:36:02;;;;;;;1.97;0.73;;;;;;;19.33;42.97;101387.38;5007249;28;20245;-83
2022/07/15 09:38:31;;;;;;;2.60;0.73;;;;;;;19.32;43.31;101383.81;5006918;28;20205;-84
2022/07/15 09:40:57;;;;;;;2.33;0.57;;;;;;;19.33;43.53;101387.38;5014331;28;20229;-83
2022/07/15 09:43:24;;;;;;;2.27;0.60;;;;;;;19.32;43.64;101389.22;5006875;28;20250;-83
2022/07/15 09:45:57;;;;;;;1.43;0.30;;;;;;;19.34;43.72;101383.69;5008025;28;20205;-82
2022/07/15 09:48:28;;;;;;;2.40;0.70;;;;;;;19.41;43.96;101383.00;5006111;28;20196;-82
2022/07/15 09:50:59;;;;;;;2.20;0.47;;;;;;;19.48;43.96;101383.31;5008742;28;20233;-83
2022/07/15 09:53:26;;;;;;;2.30;0.57;;;;;;;19.56;43.76;101385.34;5006149;28;20263;-82
2022/07/15 09:55:53;;;;;;;3.47;0.53;;;;;;;19.62;43.60;101385.66;5009873;28;20213;-82
2022/07/15 09:58:21;;;;;;;1.03;0.43;;;;;;;19.69;43.63;101384.13;5006758;28;20209;-84
2022/07/15 10:00:48;;;;;;;2.37;0.70;;;;;;;19.74;43.40;101381.00;5007595;28;20290;-84
2022/07/15 10:03:16;;;;;;;2.53;0.53;;;;;;;19.82;43.36;101377.59;5008545;28;20236;-84
2022/07/15 10:05:44;;;;;;;2.93;0.60;;;;;;;19.84;43.14;101379.19;5004911;28;20222;-82
2022/07/15 10:08:15;;;;;;;1.60;0.47;;;;;;;19.89;43.32;101384.16;5002509;28;20226;-84
2022/07/15 10:10:41;;;;;;;1.50;0.50;;;;;;;19.87;43.20;101388.88;5004300;28;20210;-83
2022/07/15 10:13:25;;;;;;;3.07;0.50;;;;;;;19.85;43.24;101386.28;5006645;28;20587;-82
2022/07/15 10:16:02;;;;;;;2.03;0.60;;;;;;;19.85;43.12;101386.28;5001028;28;20691;-82
2022/07/15 10:18:45;;;;;;;2.07;0.60;;;;;;;19.86;43.45;101376.34;5010039;28;20209;-82
2022/07/15 10:21:23;;;;;;;2.50;0.60;;;;;;;19.89;43.57;101385.00;5002684;28;20213;-81
2022/07/15 10:24:10;;;;;;;1.43;0.60;;;;;;;19.93;43.86;101386.44;4999873;28;20213;-82
2022/07/15 10:26:50;;;;;;;0.70;0.43;;;;;;;19.95;43.39;101381.75;5005398;28;20221;-82
2022/07/15 10:29:17;;;;;;;2.30;0.50;;;;;;;19.96;43.30;101386.16;5005695;28;20292;-81
2022/07/15 10:31:45;;;;;;;1.77;0.70;;;;;;;19.95;43.12;101384.44;5005396;28;20790;-81
2022/07/15 10:34:19;;;;;;;2.87;0.53;;;;;;;19.95;42.97;101395.28;5002652;28;20236;-81
2022/07/15 10:36:56;;;;;;;0.93;0.33;;;;;;;19.95;42.98;101397.13;5002056;28;20203;-81
2022/07/15 10:39:27;;;;;;;2.13;0.50;;;;;;;19.90;42.96;101394.81;5001965;28;20208;-81
2022/07/15 10:41:56;;;;;;;0.80;0.40;;;;;;;19.89;42.99;101390.41;5007284;28;20696;-81
2022/07/15 10:44:23;;;;;;;1.90;0.50;;;;;;;19.91;43.24;101384.88;4999313;28;20296;-80
2022/07/15 10:47:18;;;;;;;2.20;0.60;;;;;;;19.92;42.84;101381.16;5010589;28;20214;-82
2022/07/15 10:49:45;;;;;;;1.90;0.40;;;;;;;19.95;43.34;101384.44;5009278;28;20224;-81
2022/07/15 10:52:14;;;;;;;2.63;0.50;;;;;;;19.96;43.18;101380.75;5015375;28;20705;-81
2022/07/15 10:54:45;;;;;;;2.17;0.57;;;;;;;19.96;42.96;101391.56;5015683;28;20301;-83
2022/07/15 10:57:15;;;;;;;1.13;0.50;;;;;;;19.95;43.14;101384.44;5010455;28;20216;-83
2022/07/15 10:59:52;;;;;;;1.73;0.40;;;;;;;19.96;43.03;101391.56;5013244;28;20203;-82
2022/07/15 11:02:21;;;;;;;0.77;0.40;;;;;;;19.98;43.33;101388.72;5004464;28;20234;-82
2022/07/15 11:04:48;;;;;;;2.50;0.50;;;;;;;20.00;43.22;101384.03;5009878;28;20210;-82
2022/07/15 11:07:30;;;;;;;1.90;0.50;;;;;;;20.02;43.29;101384.75;5010370;28;20222;-82
2022/07/15 11:10:14;;;;;;;1.60;0.50;;;;;;;20.06;43.66;101394.31;5001441;28;20704;-83
2022/07/15 11:13:15;;;;;;;1.70;0.50;;;;;;;20.13;43.77;101386.47;5008928;28;20224;-82
2022/07/15 11:15:41;;;;;;;2.77;0.70;;;;;;;20.21;43.55;101382.06;4947709;28;20238;-82
2022/07/15 11:18:09;;;;;;;2.30;0.50;;;;;;;20.22;43.21;101389.19;4943507;28;20222;-83
2022/07/15 11:20:39;;;;;;;6.03;0.73;;;;;;;20.23;43.62;101390.91;4975587;28;20210;-82
2022/07/15 11:23:07;;;;;;;1.83;0.70;;;;;;;20.25;43.81;101390.75;5002693;28;20254;-82
2022/07/15 11:25:38;;;;;;;1.07;0.40;;;;;;;20.30;43.90;101385.75;5008441;28;20217;-82
2022/07/15 11:28:08;;;;;;;3.93;0.60;;;;;;;20.35;43.71;101391.63;5009533;28;20238;-81
2022/07/15 11:30:39;;;;;;;2.20;0.80;;;;;;;20.38;43.78;101394.06;5007069;28;20205;-82
2022/07/15 11:33:08;;;;;;;1.73;0.60;;;;;;;20.42;43.76;101393.63;5004425;28;20233;-81
2022/07/15 11:35:44;;;;;;;1.47;0.50;;;;;;;20.47;43.55;101392.34;5006863;28;20297;-83
2022/07/15 11:38:11;;;;;;;1.53;0.50;;;;;;;20.48;43.40;101391.34;5007794;28;20222;-83